UAL427 KLAX-KDEN
Flight info
| Callsign | UAL427 |
|---|---|
| Flight time | 1h 49m |
| Altitude | 39000 |
| Route | ORCKA5 LAS J146 DICEE BUMMP SSKII4 |
| Aircraft | B772/H-SDE2E3FGHIJ5LORVWXY/LB1D1 |
Departure
| Time | 2026-04-23 04:34 |
|---|---|
| Airport | Los Angeles International Airport (KLAX) |
Arrival
| Time | 2026-04-23 06:24 |
|---|---|
| Airport | Denver International Airport (KDEN) |
| Time | Latitude | Longitude | Altitude | Speed | Heading |
|---|---|---|---|---|---|
| 2026-04-23 04:04 | 33.94036 | -118.39912 | 122 ft | 0 kts | 353° |
| 2026-04-23 04:09 | 33.94033 | -118.39912 | 122 ft | 2 kts | 353° |
| 2026-04-23 04:09 | 33.94018 | -118.39910 | 122 ft | 2 kts | 352° |
| 2026-04-23 04:09 | 33.94003 | -118.39908 | 122 ft | 2 kts | 353° |
| 2026-04-23 04:09 | 33.93988 | -118.39905 | 122 ft | 2 kts | 4° |
| 2026-04-23 04:10 | 33.93975 | -118.39912 | 122 ft | 2 kts | 47° |
| 2026-04-23 04:10 | 33.93968 | -118.39927 | 122 ft | 1 kts | 83° |
| 2026-04-23 04:10 | 33.93967 | -118.39945 | 122 ft | 2 kts | 83° |
| 2026-04-23 04:10 | 33.93966 | -118.39952 | 123 ft | 0 kts | 82° |
| 2026-04-23 04:28 | 33.93970 | -118.39913 | 122 ft | 7 kts | 82° |
| 2026-04-23 04:28 | 33.93978 | -118.39830 | 120 ft | 7 kts | 107° |
| 2026-04-23 04:28 | 33.93923 | -118.39780 | 120 ft | 10 kts | 145° |
| 2026-04-23 04:28 | 33.93903 | -118.39739 | 119 ft | 5 kts | 89° |
| 2026-04-23 04:29 | 33.93905 | -118.39713 | 118 ft | 7 kts | 83° |
| 2026-04-23 04:29 | 33.93917 | -118.39628 | 117 ft | 12 kts | 84° |
| 2026-04-23 04:29 | 33.93917 | -118.39621 | 117 ft | 12 kts | 84° |
| 2026-04-23 04:30 | 33.93929 | -118.39516 | 117 ft | 14 kts | 83° |
| 2026-04-23 04:30 | 33.93943 | -118.39379 | 114 ft | 18 kts | 82° |
| 2026-04-23 04:30 | 33.93947 | -118.39329 | 114 ft | 19 kts | 83° |
| 2026-04-23 04:31 | 33.93951 | -118.39282 | 114 ft | 19 kts | 87° |
| 2026-04-23 04:31 | 33.93969 | -118.39112 | 112 ft | 21 kts | 85° |
| 2026-04-23 04:31 | 33.93980 | -118.39001 | 110 ft | 23 kts | 82° |
| 2026-04-23 04:31 | 33.94001 | -118.38799 | 110 ft | 25 kts | 84° |
| 2026-04-23 04:32 | 33.94019 | -118.38583 | 110 ft | 25 kts | 77° |
| 2026-04-23 04:32 | 33.94044 | -118.38381 | 108 ft | 23 kts | 82° |
| 2026-04-23 04:32 | 33.94069 | -118.38176 | 107 ft | 25 kts | 82° |
| 2026-04-23 04:32 | 33.94082 | -118.38059 | 107 ft | 0 kts | 84° |
| 2026-04-23 04:33 | 33.94081 | -118.38037 | 107 ft | 7 kts | 116° |
| 2026-04-23 04:33 | 33.93989 | -118.38015 | 107 ft | 16 kts | 230° |
| 2026-04-23 04:33 | 33.93966 | -118.38142 | 107 ft | 15 kts | 268° |
| 2026-04-23 04:33 | 33.93957 | -118.38282 | 107 ft | 21 kts | 263° |
| 2026-04-23 04:34 | 33.93916 | -118.38665 | 110 ft | 74 kts | 262° |
| 2026-04-23 04:34 | 33.93835 | -118.39513 | 117 ft | 132 kts | 264° |
| 2026-04-23 04:34 | 33.93697 | -118.40823 | 380 ft | 174 kts | 261° |
| 2026-04-23 04:34 | 33.93500 | -118.42314 | 1056 ft | 193 kts | 259° |
| 2026-04-23 04:35 | 33.93280 | -118.43919 | 1906 ft | 197 kts | 264° |
| 2026-04-23 04:35 | 33.93196 | -118.45633 | 2551 ft | 215 kts | 259° |
| 2026-04-23 04:35 | 33.92832 | -118.47443 | 3289 ft | 230 kts | 254° |
| 2026-04-23 04:35 | 33.92419 | -118.49349 | 4006 ft | 245 kts | 254° |
| 2026-04-23 04:36 | 33.92008 | -118.51359 | 4760 ft | 255 kts | 253° |
| 2026-04-23 04:36 | 33.91337 | -118.53316 | 5004 ft | 256 kts | 232° |
| 2026-04-23 04:36 | 33.90002 | -118.54701 | 5026 ft | 251 kts | 210° |
| 2026-04-23 04:36 | 33.88475 | -118.55695 | 5034 ft | 250 kts | 207° |
| 2026-04-23 04:37 | 33.86921 | -118.56667 | 5035 ft | 249 kts | 207° |
| 2026-04-23 04:37 | 33.85313 | -118.57359 | 5025 ft | 250 kts | 187° |
| 2026-04-23 04:37 | 33.83592 | -118.57124 | 5030 ft | 252 kts | 168° |
| 2026-04-23 04:37 | 33.81899 | -118.56576 | 5034 ft | 252 kts | 167° |
| 2026-04-23 04:38 | 33.80211 | -118.56011 | 5034 ft | 252 kts | 167° |
| 2026-04-23 04:38 | 33.78545 | -118.55353 | 5029 ft | 254 kts | 156° |
| 2026-04-23 04:38 | 33.77166 | -118.53985 | 5027 ft | 269 kts | 130° |
| 2026-04-23 04:38 | 33.76474 | -118.51839 | 5852 ft | 287 kts | 98° |
| 2026-04-23 04:39 | 33.76773 | -118.49570 | 7284 ft | 279 kts | 71° |
| 2026-04-23 04:39 | 33.77862 | -118.47688 | 8291 ft | 287 kts | 45° |
| 2026-04-23 04:39 | 33.79560 | -118.46368 | 9192 ft | 294 kts | 34° |
| 2026-04-23 04:39 | 33.81271 | -118.45081 | 10177 ft | 294 kts | 37° |
| 2026-04-23 04:40 | 33.83011 | -118.43739 | 10938 ft | 303 kts | 37° |
| 2026-04-23 04:40 | 33.84804 | -118.42352 | 11576 ft | 316 kts | 37° |
| 2026-04-23 04:40 | 33.86696 | -118.40889 | 12221 ft | 329 kts | 37° |
| 2026-04-23 04:40 | 33.88654 | -118.39374 | 12760 ft | 344 kts | 37° |
| 2026-04-23 04:41 | 33.90680 | -118.37807 | 13262 ft | 359 kts | 36° |
| 2026-04-23 04:41 | 33.92838 | -118.36138 | 13757 ft | 374 kts | 36° |
| 2026-04-23 04:41 | 33.95030 | -118.34444 | 14265 ft | 387 kts | 36° |
| 2026-04-23 04:41 | 33.97321 | -118.32677 | 14951 ft | 394 kts | 36° |
| 2026-04-23 04:42 | 33.99574 | -118.30804 | 15673 ft | 397 kts | 42° |
| 2026-04-23 04:42 | 34.01544 | -118.28485 | 16375 ft | 399 kts | 53° |
| 2026-04-23 04:42 | 34.03192 | -118.25804 | 17087 ft | 402 kts | 58° |
| 2026-04-23 04:42 | 34.04777 | -118.23019 | 17805 ft | 407 kts | 59° |
| 2026-04-23 04:43 | 34.06368 | -118.20212 | 18498 ft | 412 kts | 59° |
| 2026-04-23 04:43 | 34.07994 | -118.17337 | 19183 ft | 417 kts | 59° |
| 2026-04-23 04:43 | 34.09634 | -118.14437 | 19846 ft | 422 kts | 59° |
| 2026-04-23 04:43 | 34.11293 | -118.11500 | 20487 ft | 427 kts | 59° |
| 2026-04-23 04:44 | 34.12957 | -118.08552 | 21101 ft | 432 kts | 59° |
| 2026-04-23 04:44 | 34.14654 | -118.05541 | 21713 ft | 438 kts | 59° |
| 2026-04-23 04:44 | 34.16379 | -118.02480 | 22346 ft | 443 kts | 59° |
| 2026-04-23 04:44 | 34.18101 | -117.99421 | 22964 ft | 447 kts | 58° |
| 2026-04-23 04:45 | 34.19852 | -117.96307 | 23566 ft | 452 kts | 58° |
| 2026-04-23 04:45 | 34.21645 | -117.93116 | 24174 ft | 457 kts | 58° |
| 2026-04-23 04:45 | 34.23410 | -117.89972 | 24763 ft | 462 kts | 58° |
| 2026-04-23 04:45 | 34.25229 | -117.86729 | 25339 ft | 467 kts | 58° |
| 2026-04-23 04:46 | 34.27037 | -117.83503 | 25918 ft | 471 kts | 58° |
| 2026-04-23 04:46 | 34.28880 | -117.80212 | 26509 ft | 475 kts | 58° |
| 2026-04-23 04:46 | 34.30738 | -117.76892 | 27148 ft | 478 kts | 58° |
| 2026-04-23 04:46 | 34.32613 | -117.73536 | 27720 ft | 482 kts | 58° |
| 2026-04-23 04:47 | 34.34485 | -117.70184 | 28225 ft | 488 kts | 58° |
| 2026-04-23 04:47 | 34.36409 | -117.66814 | 28755 ft | 493 kts | 56° |
| 2026-04-23 04:47 | 34.38414 | -117.63468 | 29308 ft | 497 kts | 56° |
| 2026-04-23 04:47 | 34.40451 | -117.60081 | 29825 ft | 501 kts | 56° |
| 2026-04-23 04:48 | 34.42526 | -117.56621 | 30324 ft | 506 kts | 56° |
| 2026-04-23 04:48 | 34.44583 | -117.53183 | 30861 ft | 509 kts | 56° |
| 2026-04-23 04:48 | 34.46651 | -117.49719 | 31482 ft | 509 kts | 56° |
| 2026-04-23 04:48 | 34.48717 | -117.46255 | 32153 ft | 508 kts | 56° |
| 2026-04-23 04:49 | 34.50759 | -117.42825 | 32840 ft | 506 kts | 56° |
| 2026-04-23 04:49 | 34.52815 | -117.39368 | 33477 ft | 505 kts | 55° |
| 2026-04-23 04:49 | 34.54858 | -117.35928 | 34077 ft | 504 kts | 55° |
| 2026-04-23 04:49 | 34.56889 | -117.32503 | 34654 ft | 503 kts | 56° |
| 2026-04-23 04:50 | 34.58920 | -117.29073 | 35199 ft | 502 kts | 56° |
| 2026-04-23 04:50 | 34.60947 | -117.25648 | 35762 ft | 501 kts | 56° |
| 2026-04-23 04:50 | 34.62958 | -117.22247 | 36321 ft | 499 kts | 56° |
| 2026-04-23 04:50 | 34.64973 | -117.18834 | 36791 ft | 498 kts | 56° |
| 2026-04-23 04:51 | 34.66989 | -117.15417 | 37187 ft | 499 kts | 56° |
| 2026-04-23 04:51 | 34.69019 | -117.11971 | 37556 ft | 500 kts | 56° |
| 2026-04-23 04:51 | 34.71036 | -117.08546 | 37922 ft | 501 kts | 56° |
| 2026-04-23 04:51 | 34.73034 | -117.05148 | 38195 ft | 503 kts | 56° |
| 2026-04-23 04:52 | 34.75096 | -117.01638 | 38391 ft | 508 kts | 56° |
| 2026-04-23 04:52 | 34.77143 | -116.98151 | 38604 ft | 511 kts | 56° |
| 2026-04-23 04:52 | 34.79185 | -116.94668 | 38863 ft | 513 kts | 56° |
| 2026-04-23 04:52 | 34.81268 | -116.91113 | 39115 ft | 515 kts | 56° |
| 2026-04-23 04:53 | 34.85464 | -116.83939 | 39159 ft | 522 kts | 56° |
| 2026-04-23 04:53 | 34.89624 | -116.76814 | 39159 ft | 518 kts | 55° |
| 2026-04-23 04:54 | 34.94070 | -116.69990 | 39162 ft | 510 kts | 47° |
| 2026-04-23 04:54 | 34.98838 | -116.63727 | 39158 ft | 500 kts | 47° |
| 2026-04-23 04:55 | 35.03509 | -116.57587 | 39155 ft | 492 kts | 47° |
| 2026-04-23 04:55 | 35.08108 | -116.51525 | 39150 ft | 490 kts | 47° |
| 2026-04-23 04:56 | 35.12736 | -116.45409 | 39144 ft | 493 kts | 47° |
| 2026-04-23 04:56 | 35.17376 | -116.39265 | 39141 ft | 491 kts | 47° |
| 2026-04-23 04:57 | 35.21972 | -116.33165 | 39140 ft | 491 kts | 47° |
| 2026-04-23 04:57 | 35.26589 | -116.27026 | 39140 ft | 491 kts | 47° |
| 2026-04-23 04:58 | 35.31177 | -116.20915 | 39140 ft | 491 kts | 47° |
| 2026-04-23 04:58 | 35.35799 | -116.14748 | 39140 ft | 491 kts | 47° |
| 2026-04-23 04:59 | 35.40394 | -116.08604 | 39140 ft | 491 kts | 47° |
| 2026-04-23 04:59 | 35.44989 | -116.02450 | 39140 ft | 490 kts | 47° |
| 2026-04-23 05:00 | 35.49567 | -115.96306 | 39141 ft | 490 kts | 47° |
| 2026-04-23 05:00 | 35.54157 | -115.90136 | 39141 ft | 490 kts | 47° |
| 2026-04-23 05:01 | 35.58735 | -115.83971 | 39134 ft | 490 kts | 47° |
| 2026-04-23 05:01 | 35.63338 | -115.77760 | 39128 ft | 491 kts | 47° |
| 2026-04-23 05:02 | 35.67877 | -115.71542 | 39120 ft | 490 kts | 48° |
| 2026-04-23 05:02 | 35.72398 | -115.65316 | 39127 ft | 490 kts | 48° |
| 2026-04-23 05:03 | 35.76933 | -115.59064 | 39128 ft | 491 kts | 48° |
| 2026-04-23 05:03 | 35.81458 | -115.52815 | 39128 ft | 490 kts | 48° |
| 2026-04-23 05:04 | 35.85984 | -115.46555 | 39128 ft | 491 kts | 48° |
| 2026-04-23 05:04 | 35.90480 | -115.40325 | 39123 ft | 490 kts | 48° |
| 2026-04-23 05:05 | 35.95003 | -115.34045 | 39120 ft | 490 kts | 48° |
| 2026-04-23 05:05 | 35.99526 | -115.27756 | 39120 ft | 491 kts | 48° |
| 2026-04-23 05:06 | 36.04016 | -115.21500 | 39119 ft | 490 kts | 48° |
| 2026-04-23 05:06 | 36.08091 | -115.14731 | 39105 ft | 493 kts | 62° |
| 2026-04-23 05:07 | 36.10764 | -115.06904 | 39102 ft | 500 kts | 70° |
| 2026-04-23 05:07 | 36.13242 | -114.98888 | 39100 ft | 504 kts | 70° |
| 2026-04-23 05:08 | 36.15760 | -114.90710 | 39103 ft | 509 kts | 70° |
| 2026-04-23 05:08 | 36.18250 | -114.82591 | 39098 ft | 507 kts | 70° |
| 2026-04-23 05:09 | 36.20749 | -114.74440 | 39094 ft | 507 kts | 70° |
| 2026-04-23 05:09 | 36.23231 | -114.66329 | 39092 ft | 507 kts | 70° |
| 2026-04-23 05:10 | 36.25730 | -114.58134 | 39093 ft | 507 kts | 70° |
| 2026-04-23 05:10 | 36.28201 | -114.50005 | 39093 ft | 507 kts | 70° |
| 2026-04-23 05:11 | 36.30675 | -114.41846 | 39094 ft | 507 kts | 70° |
| 2026-04-23 05:11 | 36.33138 | -114.33701 | 39092 ft | 507 kts | 70° |
| 2026-04-23 05:12 | 36.35601 | -114.25526 | 39089 ft | 507 kts | 70° |
| 2026-04-23 05:12 | 36.38059 | -114.17350 | 39090 ft | 507 kts | 70° |
| 2026-04-23 05:13 | 36.40509 | -114.09175 | 39091 ft | 507 kts | 70° |
| 2026-04-23 05:14 | 36.44169 | -113.96918 | 39091 ft | 507 kts | 70° |
| 2026-04-23 05:14 | 36.46614 | -113.88699 | 39092 ft | 507 kts | 70° |
| 2026-04-23 05:15 | 36.49039 | -113.80521 | 39092 ft | 506 kts | 70° |
| 2026-04-23 05:15 | 36.51463 | -113.72326 | 39093 ft | 506 kts | 70° |
| 2026-04-23 05:16 | 36.53883 | -113.64122 | 39094 ft | 506 kts | 70° |
| 2026-04-23 05:16 | 36.56289 | -113.55936 | 39094 ft | 506 kts | 70° |
| 2026-04-23 05:17 | 36.58684 | -113.47770 | 39100 ft | 506 kts | 70° |
| 2026-04-23 05:17 | 36.61093 | -113.39525 | 39126 ft | 506 kts | 70° |
| 2026-04-23 05:18 | 36.63492 | -113.31292 | 39148 ft | 506 kts | 71° |
| 2026-04-23 05:18 | 36.65871 | -113.23092 | 39168 ft | 506 kts | 71° |
| 2026-04-23 05:19 | 36.68240 | -113.14903 | 39169 ft | 506 kts | 71° |
| 2026-04-23 05:19 | 36.70625 | -113.06632 | 39169 ft | 506 kts | 71° |
| 2026-04-23 05:20 | 36.72985 | -112.98422 | 39170 ft | 509 kts | 71° |
| 2026-04-23 05:20 | 36.75383 | -112.90055 | 39171 ft | 518 kts | 71° |
| 2026-04-23 05:21 | 36.77824 | -112.81512 | 39172 ft | 525 kts | 71° |
| 2026-04-23 05:21 | 36.80272 | -112.72919 | 39173 ft | 528 kts | 71° |
| 2026-04-23 05:22 | 36.82714 | -112.64320 | 39174 ft | 526 kts | 71° |
| 2026-04-23 05:22 | 36.85145 | -112.55732 | 39175 ft | 526 kts | 71° |
| 2026-04-23 05:23 | 36.87563 | -112.47164 | 39176 ft | 526 kts | 71° |
| 2026-04-23 05:23 | 36.89990 | -112.38537 | 39177 ft | 526 kts | 71° |
| 2026-04-23 05:24 | 36.92402 | -112.29944 | 39168 ft | 526 kts | 71° |
| 2026-04-23 05:24 | 36.94799 | -112.21375 | 39151 ft | 526 kts | 71° |
| 2026-04-23 05:25 | 36.97200 | -112.12761 | 39134 ft | 525 kts | 71° |
| 2026-04-23 05:25 | 36.99584 | -112.04182 | 39126 ft | 517 kts | 70° |
| 2026-04-23 05:26 | 37.01899 | -111.95826 | 39128 ft | 508 kts | 69° |
| 2026-04-23 05:26 | 37.04176 | -111.87579 | 39122 ft | 499 kts | 69° |
| 2026-04-23 05:27 | 37.06429 | -111.79396 | 39112 ft | 491 kts | 69° |
| 2026-04-23 05:27 | 37.08629 | -111.71384 | 39112 ft | 485 kts | 69° |
| 2026-04-23 05:28 | 37.10803 | -111.63442 | 39114 ft | 481 kts | 70° |
| 2026-04-23 05:28 | 37.12962 | -111.55529 | 39113 ft | 480 kts | 70° |
| 2026-04-23 05:29 | 37.15108 | -111.47643 | 39113 ft | 481 kts | 70° |
| 2026-04-23 05:29 | 37.17248 | -111.39750 | 39113 ft | 481 kts | 70° |
| 2026-04-23 05:30 | 37.19398 | -111.31799 | 39113 ft | 481 kts | 71° |
| 2026-04-23 05:30 | 37.21534 | -111.23886 | 39111 ft | 480 kts | 70° |
| 2026-04-23 05:31 | 37.24331 | -111.16311 | 39113 ft | 480 kts | 63° |
| 2026-04-23 05:31 | 37.27315 | -111.08858 | 39113 ft | 480 kts | 63° |
| 2026-04-23 05:32 | 37.30287 | -111.01402 | 39113 ft | 482 kts | 62° |
| 2026-04-23 05:32 | 37.33290 | -110.93842 | 39113 ft | 484 kts | 62° |
| 2026-04-23 05:33 | 37.36296 | -110.86250 | 39114 ft | 488 kts | 62° |
| 2026-04-23 05:33 | 37.39315 | -110.78604 | 39113 ft | 488 kts | 62° |
| 2026-04-23 05:34 | 37.42302 | -110.71019 | 39114 ft | 488 kts | 62° |
| 2026-04-23 05:34 | 37.45305 | -110.63374 | 39115 ft | 488 kts | 62° |
| 2026-04-23 05:35 | 37.48294 | -110.55747 | 39120 ft | 488 kts | 62° |
| 2026-04-23 05:35 | 37.51281 | -110.48105 | 39125 ft | 488 kts | 62° |
| 2026-04-23 05:36 | 37.54264 | -110.40456 | 39131 ft | 488 kts | 62° |
| 2026-04-23 05:36 | 37.57254 | -110.32767 | 39129 ft | 488 kts | 62° |
| 2026-04-23 05:37 | 37.60230 | -110.25098 | 39124 ft | 488 kts | 62° |
| 2026-04-23 05:37 | 37.63187 | -110.17457 | 39116 ft | 488 kts | 62° |
| 2026-04-23 05:38 | 37.66162 | -110.09751 | 39112 ft | 488 kts | 62° |
| 2026-04-23 05:38 | 37.69122 | -110.02067 | 39112 ft | 488 kts | 62° |
| 2026-04-23 05:39 | 37.72061 | -109.94415 | 39112 ft | 488 kts | 62° |
| 2026-04-23 05:39 | 37.75010 | -109.86719 | 39112 ft | 488 kts | 62° |
| 2026-04-23 05:40 | 37.77962 | -109.78998 | 39113 ft | 488 kts | 62° |
| 2026-04-23 05:40 | 37.80901 | -109.71291 | 39113 ft | 488 kts | 62° |
| 2026-04-23 05:41 | 37.83842 | -109.63558 | 39113 ft | 488 kts | 62° |
| 2026-04-23 05:41 | 37.86773 | -109.55834 | 39113 ft | 488 kts | 62° |
| 2026-04-23 05:42 | 37.89694 | -109.48113 | 39113 ft | 488 kts | 62° |
| 2026-04-23 05:42 | 37.92606 | -109.40399 | 39113 ft | 488 kts | 62° |
| 2026-04-23 05:43 | 37.95515 | -109.32673 | 39111 ft | 488 kts | 63° |
| 2026-04-23 05:43 | 37.98433 | -109.24905 | 39110 ft | 488 kts | 63° |
| 2026-04-23 05:44 | 38.01346 | -109.17129 | 39110 ft | 489 kts | 63° |
| 2026-04-23 05:44 | 38.04259 | -109.09334 | 39111 ft | 494 kts | 62° |
| 2026-04-23 05:45 | 38.07206 | -109.01427 | 39110 ft | 499 kts | 62° |
| 2026-04-23 05:45 | 38.10166 | -108.93464 | 39112 ft | 504 kts | 62° |
| 2026-04-23 05:46 | 38.13277 | -108.85513 | 39111 ft | 503 kts | 60° |
| 2026-04-23 05:46 | 38.16414 | -108.77569 | 39101 ft | 501 kts | 60° |
| 2026-04-23 05:47 | 38.19505 | -108.69705 | 39084 ft | 502 kts | 60° |
| 2026-04-23 05:47 | 38.22627 | -108.61733 | 39109 ft | 501 kts | 60° |
| 2026-04-23 05:48 | 38.25712 | -108.53831 | 39143 ft | 502 kts | 60° |
| 2026-04-23 05:48 | 38.28289 | -108.47211 | 39159 ft | 502 kts | 60° |
| 2026-04-23 05:49 | 38.31873 | -108.37979 | 39128 ft | 502 kts | 60° |
| 2026-04-23 05:49 | 38.34967 | -108.29986 | 39100 ft | 502 kts | 61° |
| 2026-04-23 05:50 | 38.38021 | -108.22074 | 39097 ft | 502 kts | 61° |
| 2026-04-23 05:50 | 38.41102 | -108.14075 | 39097 ft | 502 kts | 61° |
| 2026-04-23 05:51 | 38.44159 | -108.06113 | 39095 ft | 502 kts | 61° |
| 2026-04-23 05:51 | 38.47209 | -107.98133 | 39098 ft | 502 kts | 61° |
| 2026-04-23 05:52 | 38.50238 | -107.90120 | 39099 ft | 502 kts | 61° |
| 2026-04-23 05:52 | 38.53260 | -107.82103 | 39100 ft | 502 kts | 61° |
| 2026-04-23 05:53 | 38.56254 | -107.74143 | 39100 ft | 502 kts | 61° |
| 2026-04-23 05:53 | 38.59277 | -107.66087 | 39101 ft | 502 kts | 61° |
| 2026-04-23 05:54 | 38.62287 | -107.58043 | 39101 ft | 502 kts | 61° |
| 2026-04-23 05:54 | 38.65285 | -107.50011 | 39102 ft | 502 kts | 61° |
| 2026-04-23 05:55 | 38.68303 | -107.42018 | 39102 ft | 502 kts | 60° |
| 2026-04-23 05:55 | 38.71350 | -107.33976 | 39101 ft | 502 kts | 61° |
| 2026-04-23 05:56 | 38.74355 | -107.26020 | 38446 ft | 499 kts | 61° |
| 2026-04-23 05:56 | 38.75880 | -107.21976 | 37474 ft | 508 kts | 61° |
| 2026-04-23 05:56 | 38.77420 | -107.17884 | 36560 ft | 513 kts | 62° |
| 2026-04-23 05:56 | 38.78966 | -107.13770 | 35740 ft | 515 kts | 62° |
| 2026-04-23 05:57 | 38.80505 | -107.09667 | 34914 ft | 517 kts | 62° |
| 2026-04-23 05:57 | 38.82060 | -107.05515 | 34015 ft | 520 kts | 62° |
| 2026-04-23 05:57 | 38.83630 | -107.01319 | 33099 ft | 522 kts | 62° |
| 2026-04-23 05:57 | 38.85189 | -106.97144 | 32127 ft | 525 kts | 61° |
| 2026-04-23 05:58 | 38.86758 | -106.92938 | 31128 ft | 527 kts | 61° |
| 2026-04-23 05:58 | 38.88331 | -106.88715 | 30320 ft | 525 kts | 61° |
| 2026-04-23 05:58 | 38.89882 | -106.84539 | 29854 ft | 515 kts | 61° |
| 2026-04-23 05:58 | 38.91412 | -106.80416 | 29233 ft | 505 kts | 61° |
| 2026-04-23 05:59 | 38.92907 | -106.76384 | 28597 ft | 496 kts | 61° |
| 2026-04-23 05:59 | 38.94362 | -106.72452 | 27977 ft | 488 kts | 61° |
| 2026-04-23 05:59 | 38.95804 | -106.68555 | 27389 ft | 485 kts | 61° |
| 2026-04-23 05:59 | 38.97242 | -106.64665 | 27065 ft | 475 kts | 61° |
| 2026-04-23 06:00 | 38.98637 | -106.60880 | 27045 ft | 459 kts | 61° |
| 2026-04-23 06:00 | 38.99982 | -106.57227 | 27048 ft | 444 kts | 61° |
| 2026-04-23 06:00 | 39.01279 | -106.53690 | 26744 ft | 437 kts | 61° |
| 2026-04-23 06:00 | 39.02547 | -106.50227 | 26334 ft | 429 kts | 61° |
| 2026-04-23 06:01 | 39.03812 | -106.46770 | 25979 ft | 421 kts | 61° |
| 2026-04-23 06:01 | 39.05044 | -106.43400 | 25658 ft | 417 kts | 61° |
| 2026-04-23 06:01 | 39.06276 | -106.40025 | 25337 ft | 414 kts | 61° |
| 2026-04-23 06:01 | 39.07494 | -106.36687 | 25021 ft | 412 kts | 61° |
| 2026-04-23 06:02 | 39.08707 | -106.33360 | 24702 ft | 411 kts | 62° |
| 2026-04-23 06:02 | 39.09902 | -106.30075 | 24387 ft | 410 kts | 62° |
| 2026-04-23 06:02 | 39.11113 | -106.26741 | 24074 ft | 408 kts | 62° |
| 2026-04-23 06:02 | 39.12299 | -106.23476 | 23755 ft | 406 kts | 62° |
| 2026-04-23 06:03 | 39.13493 | -106.20183 | 23435 ft | 404 kts | 62° |
| 2026-04-23 06:03 | 39.14676 | -106.16916 | 23123 ft | 403 kts | 62° |
| 2026-04-23 06:03 | 39.15850 | -106.13666 | 22826 ft | 401 kts | 62° |
| 2026-04-23 06:03 | 39.17030 | -106.10387 | 22563 ft | 400 kts | 62° |
| 2026-04-23 06:04 | 39.18195 | -106.07149 | 22302 ft | 399 kts | 62° |
| 2026-04-23 06:04 | 39.19352 | -106.03927 | 22036 ft | 398 kts | 62° |
| 2026-04-23 06:04 | 39.20503 | -106.00719 | 21768 ft | 396 kts | 62° |
| 2026-04-23 06:04 | 39.21658 | -105.97498 | 21496 ft | 395 kts | 62° |
| 2026-04-23 06:05 | 39.22806 | -105.94290 | 21224 ft | 394 kts | 62° |
| 2026-04-23 06:05 | 39.23958 | -105.91070 | 20952 ft | 392 kts | 62° |
| 2026-04-23 06:05 | 39.25097 | -105.87909 | 20686 ft | 391 kts | 62° |
| 2026-04-23 06:05 | 39.26235 | -105.84752 | 20422 ft | 390 kts | 62° |
| 2026-04-23 06:06 | 39.27375 | -105.81589 | 20159 ft | 388 kts | 62° |
| 2026-04-23 06:06 | 39.28509 | -105.78436 | 19900 ft | 387 kts | 62° |
| 2026-04-23 06:06 | 39.29630 | -105.75317 | 19646 ft | 386 kts | 62° |
| 2026-04-23 06:06 | 39.30764 | -105.72160 | 19390 ft | 384 kts | 62° |
| 2026-04-23 06:07 | 39.31886 | -105.69029 | 19134 ft | 379 kts | 62° |
| 2026-04-23 06:07 | 39.32978 | -105.65989 | 18888 ft | 371 kts | 61° |
| 2026-04-23 06:07 | 39.34072 | -105.62994 | 18658 ft | 366 kts | 61° |
| 2026-04-23 06:07 | 39.35155 | -105.60040 | 18432 ft | 366 kts | 61° |
| 2026-04-23 06:08 | 39.36245 | -105.57056 | 18197 ft | 366 kts | 61° |
| 2026-04-23 06:08 | 39.37317 | -105.54118 | 17945 ft | 365 kts | 61° |
| 2026-04-23 06:08 | 39.38401 | -105.51143 | 17675 ft | 363 kts | 61° |
| 2026-04-23 06:08 | 39.39468 | -105.48209 | 17406 ft | 358 kts | 61° |
| 2026-04-23 06:09 | 39.40517 | -105.45319 | 17158 ft | 351 kts | 61° |
| 2026-04-23 06:09 | 39.41368 | -105.42445 | 17082 ft | 343 kts | 74° |
| 2026-04-23 06:09 | 39.41646 | -105.39399 | 16935 ft | 342 kts | 84° |
| 2026-04-23 06:09 | 39.41712 | -105.36314 | 16603 ft | 344 kts | 86° |
| 2026-04-23 06:10 | 39.41734 | -105.33253 | 16292 ft | 342 kts | 87° |
| 2026-04-23 06:10 | 39.41750 | -105.30181 | 16017 ft | 338 kts | 87° |
| 2026-04-23 06:10 | 39.41765 | -105.27158 | 15762 ft | 336 kts | 87° |
| 2026-04-23 06:10 | 39.41781 | -105.24143 | 15510 ft | 336 kts | 88° |
| 2026-04-23 06:11 | 39.41796 | -105.21110 | 15254 ft | 335 kts | 88° |
| 2026-04-23 06:11 | 39.41805 | -105.19134 | 15088 ft | 334 kts | 88° |
| 2026-04-23 06:11 | 39.41823 | -105.15128 | 14750 ft | 330 kts | 88° |
| 2026-04-23 06:11 | 39.41835 | -105.12195 | 14504 ft | 325 kts | 88° |
| 2026-04-23 06:12 | 39.41846 | -105.09283 | 14260 ft | 321 kts | 87° |
| 2026-04-23 06:12 | 39.41857 | -105.06411 | 14020 ft | 317 kts | 87° |
| 2026-04-23 06:12 | 39.41876 | -105.00804 | 13549 ft | 309 kts | 86° |
| 2026-04-23 06:13 | 39.41884 | -104.98045 | 13318 ft | 305 kts | 86° |
| 2026-04-23 06:13 | 39.41893 | -104.95318 | 13084 ft | 300 kts | 85° |
| 2026-04-23 06:13 | 39.42036 | -104.92667 | 12848 ft | 294 kts | 79° |
| 2026-04-23 06:13 | 39.42188 | -104.90932 | 12648 ft | 293 kts | 79° |
| 2026-04-23 06:14 | 39.42500 | -104.87487 | 12243 ft | 284 kts | 79° |
| 2026-04-23 06:14 | 39.42722 | -104.84991 | 11981 ft | 278 kts | 78° |
| 2026-04-23 06:14 | 39.42942 | -104.82527 | 11750 ft | 268 kts | 79° |
| 2026-04-23 06:14 | 39.43155 | -104.80140 | 11458 ft | 267 kts | 79° |
| 2026-04-23 06:15 | 39.43367 | -104.77760 | 11183 ft | 267 kts | 79° |
| 2026-04-23 06:15 | 39.43764 | -104.75470 | 11032 ft | 261 kts | 67° |
| 2026-04-23 06:15 | 39.44425 | -104.73253 | 11016 ft | 262 kts | 64° |
| 2026-04-23 06:15 | 39.45134 | -104.71086 | 11013 ft | 260 kts | 57° |
| 2026-04-23 06:16 | 39.45852 | -104.69852 | 11010 ft | 253 kts | 38° |
| 2026-04-23 06:16 | 39.47846 | -104.68447 | 11012 ft | 245 kts | 14° |
| 2026-04-23 06:16 | 39.49456 | -104.67807 | 11015 ft | 243 kts | 11° |
| 2026-04-23 06:16 | 39.51098 | -104.67228 | 11014 ft | 240 kts | 10° |
| 2026-04-23 06:17 | 39.52634 | -104.66693 | 11025 ft | 221 kts | 9° |
| 2026-04-23 06:17 | 39.54106 | -104.66421 | 11004 ft | 209 kts | 358° |
| 2026-04-23 06:17 | 39.55559 | -104.66378 | 10686 ft | 209 kts | 356° |
| 2026-04-23 06:17 | 39.57002 | -104.66361 | 10353 ft | 206 kts | 355° |
| 2026-04-23 06:18 | 39.58419 | -104.66346 | 10076 ft | 204 kts | 355° |
| 2026-04-23 06:18 | 39.59824 | -104.66330 | 9807 ft | 202 kts | 355° |
| 2026-04-23 06:18 | 39.61211 | -104.66313 | 9567 ft | 198 kts | 355° |
| 2026-04-23 06:18 | 39.62566 | -104.66297 | 9335 ft | 195 kts | 355° |
| 2026-04-23 06:19 | 39.63934 | -104.66281 | 9099 ft | 196 kts | 355° |
| 2026-04-23 06:19 | 39.65301 | -104.66266 | 8849 ft | 198 kts | 355° |
| 2026-04-23 06:19 | 39.66672 | -104.66249 | 8578 ft | 199 kts | 355° |
| 2026-04-23 06:19 | 39.68040 | -104.66232 | 8312 ft | 198 kts | 355° |
| 2026-04-23 06:20 | 39.69422 | -104.66216 | 8046 ft | 198 kts | 355° |
| 2026-04-23 06:20 | 39.70778 | -104.66199 | 7781 ft | 190 kts | 355° |
| 2026-04-23 06:20 | 39.72059 | -104.66182 | 7532 ft | 179 kts | 355° |
| 2026-04-23 06:20 | 39.73260 | -104.66164 | 7261 ft | 164 kts | 356° |
| 2026-04-23 06:21 | 39.74385 | -104.66135 | 7109 ft | 160 kts | 356° |
| 2026-04-23 06:21 | 39.75512 | -104.66118 | 6925 ft | 165 kts | 355° |
| 2026-04-23 06:21 | 39.76659 | -104.66121 | 6704 ft | 167 kts | 355° |
| 2026-04-23 06:21 | 39.77826 | -104.66136 | 6485 ft | 168 kts | 355° |
| 2026-04-23 06:22 | 39.78991 | -104.66116 | 6293 ft | 167 kts | 357° |
| 2026-04-23 06:22 | 39.80161 | -104.66089 | 6048 ft | 169 kts | 357° |
| 2026-04-23 06:22 | 39.81324 | -104.66074 | 5793 ft | 168 kts | 356° |
| 2026-04-23 06:22 | 39.82464 | -104.66068 | 5547 ft | 158 kts | 358° |
| 2026-04-23 06:23 | 39.83472 | -104.66052 | 5450 ft | 127 kts | 1° |
| 2026-04-23 06:23 | 39.84168 | -104.66042 | 5449 ft | 76 kts | 1° |
| 2026-04-23 06:23 | 39.84667 | -104.66037 | 5449 ft | 66 kts | 359° |
| 2026-04-23 06:23 | 39.85078 | -104.66060 | 5449 ft | 53 kts | 344° |
| 2026-04-23 06:24 | 39.85355 | -104.66206 | 5449 ft | 35 kts | 335° |
| 2026-04-23 06:24 | 39.85572 | -104.66235 | 5449 ft | 27 kts | 0° |
| 2026-04-23 06:24 | 39.85655 | -104.66235 | 5449 ft | 2 kts | 360° |
| 2026-04-23 06:24 | 39.85679 | -104.66329 | 5449 ft | 18 kts | 266° |
| 2026-04-23 06:25 | 39.85667 | -104.66517 | 5449 ft | 23 kts | 256° |
| 2026-04-23 06:25 | 39.85660 | -104.66737 | 5449 ft | 24 kts | 271° |
| 2026-04-23 06:25 | 39.85663 | -104.66958 | 5449 ft | 24 kts | 270° |
| 2026-04-23 06:25 | 39.85663 | -104.67171 | 5449 ft | 22 kts | 269° |
| 2026-04-23 06:26 | 39.85663 | -104.67357 | 5449 ft | 18 kts | 271° |
| 2026-04-23 06:26 | 39.85674 | -104.67503 | 5449 ft | 14 kts | 289° |
| 2026-04-23 06:26 | 39.85707 | -104.67545 | 5449 ft | 4 kts | 344° |
| 2026-04-23 06:26 | 39.85750 | -104.67544 | 5449 ft | 6 kts | 2° |
| 2026-04-23 06:27 | 39.85793 | -104.67545 | 5449 ft | 4 kts | 360° |
| 2026-04-23 06:27 | 39.85804 | -104.67545 | 5449 ft | 0 kts | 0° |